Latest Weather Observations for Paraburdoo

IDW60801

Issued at 8:32 am WST Tuesday 7 July 2015 (issued every 30 minutes, with the page automatically refreshed every 10 minutes)

About weather observations | Map of weather stations | Latest weather observations for WA | Other Formats
Station Details ID: 007185 Name: PARABURDOO AERO Lat: -23.17 Lon: 117.75 Height: 423.7 m
Data from the previous 72 hours. | See also: Recent months at Paraburdoo
Date/Time
WST
Temp
°C
App
Temp
°C
Dew
Point
Rel
Hum
%
Delta-T
°C
Wind Press
QNH
hPa
Press
MSL
hPa
Rain
since 9 am
mm
Dir
 
Spd
km/h
Gust
km/h
Spd
kts
Gust
kts
07/08:30am 16.3 13.4 2.7 40 6.3 ENE 7 9 4 5 1019.7 1018.7 0.0
07/08:00am 13.9 11.2 2.8 47 5.0 ENE 6 7 3 4 1019.3 1018.3 0.0
07/07:30am 11.4 7.4 2.7 55 3.9 ENE 13 15 7 8 1018.9 1017.8 0.0
07/07:00am 9.7 5.7 2.6 61 3.1 ENE 13 17 7 9 1018.6 1017.5 0.0
07/06:30am 10.1 4.9 2.5 59 3.3 ENE 19 24 10 13 1018.3 1017.3 0.0
07/06:00am 9.3 6.0 2.4 62 3.0 ENE 9 11 5 6 1018.2 1017.2 0.0
07/05:30am 9.1 5.4 2.2 62 3.0 ENE 11 13 6 7 1018.1 1017.1 0.0
07/05:00am 9.1 5.4 2.4 63 2.9 E 11 13 6 7 1017.8 1016.8 0.0
07/04:30am 8.4 5.4 2.2 65 2.7 ESE 7 9 4 5 1017.7 1016.7 0.0
07/04:00am 9.2 5.9 2.3 62 3.0 E 9 11 5 6 1017.9 1016.9 0.0
07/03:30am 9.4 5.6 2.0 60 3.2 ENE 11 11 6 6 1018.0 1017.0 0.0
07/03:00am 10.5 6.8 2.4 57 3.5 NE 11 13 6 7 1017.9 1016.9 0.0
07/02:30am 10.4 6.3 2.3 57 3.5 NE 13 15 7 8 1018.0 1017.0 0.0
07/02:00am 9.8 6.4 1.9 58 3.4 ENE 9 9 5 5 1018.1 1017.1 0.0
07/01:30am 10.6 6.9 2.2 56 3.7 NE 11 13 6 7 1018.0 1017.0 0.0
07/01:00am 10.4 6.6 2.0 56 3.6 NE 11 13 6 7 1018.1 1017.1 0.0
07/12:30am 11.2 7.4 2.0 53 4.0 NE 11 13 6 7 1018.2 1017.2 0.0
07/12:00am 11.5 7.7 1.7 51 4.3 NE 11 13 6 7 1018.4 1017.4 0.0
 
Date/Time
WST
Temp
°C
App
Temp
°C
Dew
Point
Rel
Hum
%
Delta-T
°C
Wind Press
QNH
hPa
Press
MSL
hPa
Rain
since 9 am
mm
Dir
 
Spd
km/h
Gust
km/h
Spd
kts
Gust
kts
06/11:30pm 11.9 9.0 2.4 52 4.2 NE 7 9 4 5 1018.6 1017.5 0.0
06/11:00pm 11.7 8.8 2.7 54 4.0 NE 7 9 4 5 1018.8 1017.7 0.0
06/10:30pm 12.8 8.3 2.4 49 4.6 NNE 15 19 8 10 1018.8 1017.7 0.0
06/10:00pm 12.2 9.4 1.8 49 4.6 NNE 6 7 3 4 1018.9 1017.8 0.0
06/09:30pm 12.6 8.8 1.9 48 4.7 NE 11 13 6 7 1019.0 1017.9 0.0
06/09:00pm 13.1 8.9 1.8 46 5.0 NE 13 15 7 8 1019.1 1018.0 0.0
06/08:30pm 14.1 10.6 1.1 41 5.7 NE 9 11 5 6 1019.1 1018.0 0.0
06/08:00pm 15.4 12.3 1.2 38 6.3 E 7 9 4 5 1019.1 1018.0 0.0
06/07:30pm 16.7 13.5 0.8 34 7.1 E 7 9 4 5 1018.8 1017.7 0.0
06/07:00pm 18.4 14.9 1.0 31 7.9 E 9 11 5 6 1018.8 1017.7 0.0
06/06:30pm 19.6 16.0 0.6 28 8.7 ESE 9 11 5 6 1018.6 1017.5 0.0
06/06:00pm 20.5 16.5 0.4 26 9.2 ESE 11 11 6 6 1018.0 1017.0 0.0
06/05:30pm 22.4 18.8 0.3 23 10.2 ESE 9 13 5 7 1017.9 1016.9 0.0
06/05:00pm 24.1 20.5 0.4 21 11.1 ESE 9 15 5 8 1017.7 1016.7 0.0
06/04:30pm 24.8 21.4 -0.4 19 11.7 N 7 15 4 8 1017.6 1016.6 0.0
06/04:00pm 25.7 22.4 0.4 19 12.0 W 7 11 4 6 1017.5 1016.5 0.0
06/03:30pm 25.2 21.5 0.0 19 11.9 E 9 15 5 8 1017.4 1016.4 0.0
06/03:00pm 25.5 21.2 0.9 20 11.8 E 13 33 7 18 1017.4 1016.4 0.0
06/02:30pm 24.8 21.5 0.3 20 11.6 SSW 7 15 4 8 1017.6 1016.6 0.0
06/02:00pm 24.9 21.2 -0.3 19 11.8 SE 9 19 5 10 1017.7 1016.7 0.0
06/01:30pm 25.0 20.1 -0.2 19 11.8 SE 15 22 8 12 1017.9 1016.9 0.0
06/01:00pm 24.5 20.8 0.1 20 11.4 SE 9 19 5 10 1018.3 1017.3 0.0
06/12:30pm 24.4 20.8 0.7 21 11.2 E 9 15 5 8 1018.8 1017.7 0.0
06/12:00pm 24.4 20.3 0.0 20 11.4 E 11 17 6 9 1019.3 1018.3 0.0
06/11:30am 23.7 18.6 0.7 22 10.8 NE 17 20 9 11 1019.7 1018.7 0.0
06/11:00am 23.5 19.3 1.8 24 10.4 NE 13 20 7 11 1020.1 1019.1 0.0
06/10:30am 22.4 18.3 2.5 27 9.6 NE 13 19 7 10 1020.4 1019.4 0.0
06/10:00am 20.5 16.8 2.3 30 8.6 NE 11 15 6 8 1020.7 1019.7 0.0
06/09:30am 19.7 16.6 3.4 34 7.9 ENE 9 13 5 7 1020.7 1019.7 0.0
06/09:00am 17.1 13.1 3.1 39 6.6 ENE 13 17 7 9 1020.6 1019.6 0.0
06/08:30am 14.7 11.1 2.9 45 5.4 ENE 11 15 6 8 1020.4 1019.4 0.0
06/08:00am 12.8 10.0 3.2 52 4.4 ENE 7 11 4 6 1020.1 1019.1 0.0
06/07:30am 10.5 6.8 2.6 58 3.5 NE 11 13 6 7 1019.8 1018.8 0.0
06/07:00am 8.5 5.6 2.5 66 2.6 ENE 7 11 4 6 1019.7 1018.7 0.0
06/06:30am 7.7 3.9 2.0 67 2.4 ENE 11 15 6 8 1019.5 1018.5 0.0
06/06:00am 8.0 3.5 2.3 67 2.4 ENE 15 15 8 8 1019.1 1018.0 0.0
06/05:30am 8.6 4.1 2.2 64 2.7 NE 15 17 8 9 1019.0 1017.9 0.0
06/05:00am 8.8 5.4 1.9 62 2.9 E 9 11 5 6 1019.1 1018.0 0.0
06/04:30am 9.6 6.2 2.0 59 3.3 ENE 9 13 5 7 1019.0 1017.9 0.0
06/04:00am 9.6 6.2 1.8 58 3.3 ENE 9 11 5 6 1019.0 1017.9 0.0
06/03:30am 9.3 4.8 1.9 60 3.2 NE 15 15 8 8 1019.0 1017.9 0.0
06/03:00am 8.8 4.2 1.7 61 3.0 NE 15 15 8 8 1019.1 1018.0 0.0
06/02:30am 8.7 4.5 1.8 62 2.9 NE 13 15 7 8 1019.1 1018.0 0.0
06/02:00am 9.4 6.0 1.8 59 3.2 NE 9 11 5 6 1019.3 1018.3 0.0
06/01:30am 9.7 6.3 2.1 59 3.3 NE 9 11 5 6 1019.6 1018.6 0.0
06/01:00am 10.4 7.0 2.0 56 3.6 ENE 9 9 5 5 1019.7 1018.7 0.0
06/12:30am 10.3 6.5 1.9 56 3.6 NE 11 13 6 7 1019.8 1018.8 0.0
06/12:00am 10.7 6.2 2.3 56 3.7 NE 15 15 8 8 1019.9 1018.9 0.0
 
Date/Time
WST
Temp
°C
App
Temp
°C
Dew
Point
Rel
Hum
%
Delta-T
°C
Wind Press
QNH
hPa
Press
MSL
hPa
Rain
since 9 am
mm
Dir
 
Spd
km/h
Gust
km/h
Spd
kts
Gust
kts
05/11:30pm 10.5 6.4 2.4 57 3.5 NE 13 13 7 7 1020.1 1019.1 0.0
05/11:00pm 10.6 6.9 2.2 56 3.7 NE 11 13 6 7 1020.1 1019.1 0.0
05/10:30pm 11.6 7.5 2.1 52 4.2 NNE 13 15 7 8 1020.0 1019.0 0.0
05/10:00pm 11.9 7.8 2.4 52 4.2 NE 13 17 7 9 1020.2 1019.2 0.0
05/09:30pm 12.0 7.8 1.9 50 4.4 NE 13 13 7 7 1020.3 1019.3 0.0
05/09:00pm 12.4 8.6 2.0 49 4.6 NE 11 13 6 7 1020.3 1019.3 0.0
05/08:30pm 13.4 9.6 2.0 46 5.1 NE 11 13 6 7 1020.2 1019.2 0.0
05/08:00pm 14.5 11.4 1.4 41 5.8 NNE 7 7 4 4 1020.0 1019.0 0.0
05/07:30pm 15.3 12.2 1.1 38 6.3 NE 7 9 4 5 1019.9 1018.9 0.0
05/07:00pm 16.6 13.4 0.7 34 7.1 SE 7 9 4 5 1019.6 1018.6 0.0
05/06:30pm 19.4 16.1 0.4 28 8.6 SSE 7 9 4 5 1019.3 1018.3 0.0
05/06:00pm 21.1 18.8 0.3 25 9.5 SSE 2 7 1 4 1019.2 1018.1 0.0
05/05:30pm 22.4 19.3 0.3 23 10.2 SE 6 7 3 4 1018.9 1017.8 0.0
05/05:00pm 24.6 21.4 -0.5 19 11.6 WSW 6 9 3 5 1019.0 1017.9 0.0
05/04:30pm 24.7 20.8 -1.2 18 11.9 S 9 17 5 9 1019.0 1017.9 0.0
05/04:00pm 24.8 21.3 -1.1 18 11.9 SSE 7 9 4 5 1019.1 1018.0 0.0
05/03:30pm 25.2 21.9 -1.6 17 12.2 W 6 11 3 6 1019.1 1018.0 0.0
05/03:00pm 25.5 22.1 -0.5 18 12.1 N 7 13 4 7 1019.3 1018.3 0.0
05/02:30pm 24.9 21.1 -1.0 18 11.9 SW 9 17 5 9 1019.5 1018.5 0.0
05/02:00pm 25.6 22.9 0.3 19 12.0 ESE 4 9 2 5 1019.8 1018.8 0.0
05/01:30pm 25.1 21.0 -0.1 19 11.8 SSE 11 17 6 9 1020.1 1019.1 0.0
05/01:00pm 25.1 20.6 -0.1 19 11.8 N 13 20 7 11 1020.2 1019.2 0.0
05/12:30pm 24.6 19.7 -0.5 19 11.7 NE 15 22 8 12 1020.6 1019.6 0.0
05/12:00pm 24.2 19.7 -0.2 20 11.3 E 13 22 7 12 1021.3 1020.2 0.0
05/11:30am 24.1 18.9 0.4 21 11.1 NE 17 32 9 17 1021.9 1020.9 0.0
05/11:00am 23.7 18.2 0.7 22 10.8 NE 19 24 10 13 1022.1 1021.1 0.0
05/10:30am 22.7 19.0 2.2 26 9.9 NE 11 15 6 8 1022.3 1021.3 0.0
05/10:00am 21.3 17.5 1.6 27 9.2 ENE 11 15 6 8 1022.7 1021.7 0.0
05/09:30am 20.1 16.3 1.5 29 8.7 ENE 11 13 6 7 1022.7 1021.7 0.0
05/09:00am 18.2 13.7 2.1 34 7.4 ENE 15 17 8 9 1022.4 1021.4 0.0
05/08:30am 15.4 11.7 2.6 42 5.9 NE 11 17 6 9 1022.2 1021.2 0.0
05/08:00am 13.1 9.1 2.6 49 4.7 ENE 13 17 7 9 1022.1 1021.1 0.0
05/07:30am 11.3 7.2 2.1 53 4.0 NE 13 17 7 9 1021.9 1020.9 0.0
05/07:00am 9.6 4.7 2.0 59 3.3 ENE 17 19 9 10 1021.5 1020.5 0.0
05/06:30am 9.6 4.7 1.8 58 3.3 NE 17 19 9 10 1021.2 1020.1 0.0
05/06:00am 9.9 5.0 2.0 58 3.4 ENE 17 20 9 11 1020.9 1019.9 0.0
05/05:30am 9.2 5.0 1.9 60 3.1 NE 13 15 7 8 1020.7 1019.7 0.0
05/05:00am 9.7 5.9 1.8 58 3.4 ENE 11 17 6 9 1020.7 1019.7 0.0
05/04:30am 9.0 5.5 1.4 59 3.2 ENE 9 11 5 6 1020.5 1019.5 0.0
05/04:00am 9.8 6.0 1.9 58 3.4 ENE 11 13 6 7 1020.5 1019.5 0.0
05/03:30am 9.7 5.9 1.6 57 3.5 ENE 11 13 6 7 1020.6 1019.6 0.0
05/03:00am 10.2 5.6 1.8 56 3.6 ENE 15 17 8 9 1020.6 1019.6 0.0
05/02:30am 9.6 6.2 1.8 58 3.3 E 9 11 5 6 1020.5 1019.5 0.0
05/02:00am 10.1 6.6 1.5 55 3.7 ENE 9 11 5 6 1020.6 1019.6 0.0
05/01:30am 10.4 6.3 2.0 56 3.6 NE 13 15 7 8 1020.8 1019.8 0.0
05/01:00am 10.2 6.1 2.1 57 3.5 NE 13 15 7 8 1020.9 1019.9 0.0
05/12:30am 10.9 7.2 2.5 56 3.7 NNE 11 13 6 7 1020.9 1019.9 0.0
05/12:00am 10.8 6.7 2.1 55 3.8 NNE 13 13 7 7 1020.9 1019.9 0.0
 
Date/Time
WST
Temp
°C
App
Temp
°C
Dew
Point
Rel
Hum
%
Delta-T
°C
Wind Press
QNH
hPa
Press
MSL
hPa
Rain
since 9 am
mm
Dir
 
Spd
km/h
Gust
km/h
Spd
kts
Gust
kts
04/11:30pm 11.7 8.4 2.5 53 4.1 NE 9 11 5 6 1021.1 1020.0 0.0
04/11:00pm 12.2 7.7 2.4 51 4.3 NE 15 15 8 8 1021.2 1020.1 0.0
04/10:30pm 12.2 8.1 2.1 50 4.5 NE 13 13 7 7 1021.3 1020.2 0.0
04/10:00pm 13.2 8.6 1.8 46 5.0 NNE 15 17 8 9 1021.4 1020.4 0.0
04/09:30pm 14.1 11.0 1.1 41 5.7 E 7 9 4 5 1021.3 1020.2 0.0
04/09:00pm 14.6 10.7 1.2 40 5.9 ESE 11 13 6 7 1021.2 1020.1 0.0
04/08:30pm 15.7 11.7 0.7 36 6.6 ESE 11 13 6 7 1021.1 1020.0 0.0
04/08:00pm 16.9 12.6 1.0 34 7.1 ESE 13 13 7 7 1020.8 1019.8 0.0
04/07:30pm 17.4 13.1 1.0 33 7.4 E 13 15 7 8 1020.7 1019.7 0.0
04/07:00pm 17.8 13.5 0.9 32 7.6 ESE 13 15 7 8 1020.5 1019.5 0.0
04/06:30pm 19.2 15.2 0.8 29 8.4 SE 11 13 6 7 1020.3 1019.3 0.0
04/06:00pm 21.3 17.2 -0.1 24 9.7 ESE 11 13 6 7 1020.0 1019.0 0.0
04/05:30pm 22.9 19.2 0.1 22 10.6 ESE 9 11 5 6 1019.9 1018.9 0.0
04/05:00pm 24.7 20.2 -0.4 19 11.7 ESE 13 19 7 10 1019.7 1018.7 0.0
04/04:30pm 25.4 20.9 -0.6 18 12.1 SE 13 22 7 12 1019.7 1018.7 0.0
04/04:00pm 25.9 20.9 -1.0 17 12.5 SE 15 20 8 11 1019.9 1018.9 0.0
04/03:30pm 26.0 21.2 -0.1 18 12.3 ESE 15 26 8 14 1019.9 1018.9 0.0
04/03:00pm 26.1 21.2 -0.8 17 12.5 ESE 15 24 8 13 1019.9 1018.9 0.0
04/02:30pm 26.3 22.9 1.6 20 12.1 NE 9 22 5 12 1020.0 1019.0 0.0
04/02:00pm 25.7 20.7 1.1 20 11.8 ESE 17 24 9 13 1020.3 1019.3 0.0
04/01:30pm 25.3 19.8 0.7 20 11.7 ESE 19 26 10 14 1020.6 1019.6 0.0
04/01:00pm 24.7 19.4 1.6 22 11.1 ESE 19 32 10 17 1020.9 1019.9 0.0
04/12:30pm 25.0 19.1 1.8 22 11.3 ESE 22 32 12 17 1021.3 1020.2 0.0
04/12:00pm 24.8 19.3 1.7 22 11.2 E 20 30 11 16 1021.7 1020.7 0.0
04/11:30am 24.7 19.7 1.6 22 11.2 E 17 24 9 13 1022.2 1021.2 0.0
04/11:00am 23.9 18.5 1.5 23 10.7 E 19 24 10 13 1022.6 1021.6 0.0
04/10:30am 23.9 20.9 4.3 28 9.9 ENE 9 15 5 8 1022.8 1021.8 0.0
04/10:00am 21.9 19.0 4.5 32 8.7 NE 9 13 5 7 1023.2 1022.2 0.0
04/09:30am 20.3 17.0 4.4 35 7.9 NE 11 13 6 7 1023.2 1022.2 0.0
04/09:00am 17.9 14.3 4.8 42 6.4 NE 13 17 7 9 1023.0 1022.0 0.0

Other Formats:

Comma delimited format used in spreadsheet applications
http://www.bom.gov.au/fwo/IDW60801/IDW60801.94316.axf

JavaScript Object Notation format (JSON) in row-major order
http://www.bom.gov.au/fwo/IDW60801/IDW60801.94316.json